sensor_id;sensor_type;location;lat;lon;timestamp;temperature;humidity
32187;DHT22;18686;53.084;8.872;2023-08-06T00:00:52;13.80;99.90
32187;DHT22;18686;53.084;8.872;2023-08-06T00:03:21;13.80;99.90
32187;DHT22;18686;53.084;8.872;2023-08-06T00:05:51;13.80;99.90
32187;DHT22;18686;53.084;8.872;2023-08-06T00:08:19;13.90;99.90
32187;DHT22;18686;53.084;8.872;2023-08-06T00:10:48;13.80;99.90
32187;DHT22;18686;53.084;8.872;2023-08-06T00:13:16;13.80;99.90
32187;DHT22;18686;53.084;8.872;2023-08-06T00:15:45;13.80;99.90
32187;DHT22;18686;53.084;8.872;2023-08-06T00:18:13;13.80;99.90
32187;DHT22;18686;53.084;8.872;2023-08-06T00:20:42;13.80;99.90
32187;DHT22;18686;53.084;8.872;2023-08-06T00:23:12;13.80;99.90
32187;DHT22;18686;53.084;8.872;2023-08-06T00:25:40;13.80;99.90
32187;DHT22;18686;53.084;8.872;2023-08-06T00:28:08;13.80;99.90
32187;DHT22;18686;53.084;8.872;2023-08-06T00:30:37;13.80;99.90
32187;DHT22;18686;53.084;8.872;2023-08-06T00:33:05;13.80;99.90
32187;DHT22;18686;53.084;8.872;2023-08-06T00:35:34;13.80;99.90
32187;DHT22;18686;53.084;8.872;2023-08-06T00:38:02;13.70;99.90
32187;DHT22;18686;53.084;8.872;2023-08-06T00:40:32;13.70;99.90
32187;DHT22;18686;53.084;8.872;2023-08-06T00:43:00;13.70;99.90
32187;DHT22;18686;53.084;8.872;2023-08-06T00:45:30;13.70;99.90
32187;DHT22;18686;53.084;8.872;2023-08-06T00:47:58;13.70;99.90
32187;DHT22;18686;53.084;8.872;2023-08-06T00:50:27;13.70;99.90
32187;DHT22;18686;53.084;8.872;2023-08-06T00:52:56;13.70;99.90
32187;DHT22;18686;53.084;8.872;2023-08-06T00:55:25;13.80;99.90
32187;DHT22;18686;53.084;8.872;2023-08-06T00:57:55;13.80;99.90
32187;DHT22;18686;53.084;8.872;2023-08-06T01:00:24;13.80;99.90
32187;DHT22;18686;53.084;8.872;2023-08-06T01:02:54;13.80;99.90
32187;DHT22;18686;53.084;8.872;2023-08-06T01:05:22;13.80;99.90
32187;DHT22;18686;53.084;8.872;2023-08-06T01:08:01;13.80;99.90
32187;DHT22;18686;53.084;8.872;2023-08-06T01:10:49;13.80;99.90
32187;DHT22;18686;53.084;8.872;2023-08-06T01:13:26;13.90;99.90
32187;DHT22;18686;53.084;8.872;2023-08-06T01:15:58;13.90;99.90
32187;DHT22;18686;53.084;8.872;2023-08-06T01:18:27;13.90;99.90
32187;DHT22;18686;53.084;8.872;2023-08-06T01:20:58;13.90;99.90
32187;DHT22;18686;53.084;8.872;2023-08-06T01:23:26;13.90;99.90
32187;DHT22;18686;53.084;8.872;2023-08-06T01:26:00;13.90;99.90
32187;DHT22;18686;53.084;8.872;2023-08-06T01:28:36;13.90;99.90
32187;DHT22;18686;53.084;8.872;2023-08-06T01:31:09;13.90;99.90
32187;DHT22;18686;53.084;8.872;2023-08-06T01:33:41;13.90;99.90
32187;DHT22;18686;53.084;8.872;2023-08-06T01:36:14;13.80;99.90
32187;DHT22;18686;53.084;8.872;2023-08-06T01:38:44;13.80;99.90
32187;DHT22;18686;53.084;8.872;2023-08-06T01:41:12;13.80;99.90
32187;DHT22;18686;53.084;8.872;2023-08-06T01:43:41;13.80;99.90
32187;DHT22;18686;53.084;8.872;2023-08-06T01:46:09;13.80;99.90
32187;DHT22;18686;53.084;8.872;2023-08-06T01:48:38;13.80;99.90
32187;DHT22;18686;53.084;8.872;2023-08-06T01:51:06;13.70;99.90
32187;DHT22;18686;53.084;8.872;2023-08-06T01:53:35;13.70;99.90
32187;DHT22;18686;53.084;8.872;2023-08-06T01:56:04;13.70;99.90
32187;DHT22;18686;53.084;8.872;2023-08-06T01:58:32;13.60;99.90
32187;DHT22;18686;53.084;8.872;2023-08-06T02:01:02;13.70;99.90
32187;DHT22;18686;53.084;8.872;2023-08-06T02:03:30;13.70;99.90
32187;DHT22;18686;53.084;8.872;2023-08-06T02:05:58;13.70;99.90
32187;DHT22;18686;53.084;8.872;2023-08-06T02:08:27;13.60;99.90
32187;DHT22;18686;53.084;8.872;2023-08-06T02:10:57;13.70;99.90
32187;DHT22;18686;53.084;8.872;2023-08-06T02:13:26;13.70;99.90
32187;DHT22;18686;53.084;8.872;2023-08-06T02:15:55;13.60;99.90
32187;DHT22;18686;53.084;8.872;2023-08-06T02:18:24;13.60;99.90
32187;DHT22;18686;53.084;8.872;2023-08-06T02:20:56;13.70;99.90
32187;DHT22;18686;53.084;8.872;2023-08-06T02:23:26;13.60;99.90
32187;DHT22;18686;53.084;8.872;2023-08-06T02:25:59;13.60;99.90
32187;DHT22;18686;53.084;8.872;2023-08-06T02:28:28;13.60;99.90
32187;DHT22;18686;53.084;8.872;2023-08-06T02:30:56;13.60;99.90
32187;DHT22;18686;53.084;8.872;2023-08-06T02:33:25;13.60;99.90
32187;DHT22;18686;53.084;8.872;2023-08-06T02:35:59;13.60;99.90
32187;DHT22;18686;53.084;8.872;2023-08-06T02:38:28;13.60;99.90
32187;DHT22;18686;53.084;8.872;2023-08-06T02:40:57;13.60;99.90
32187;DHT22;18686;53.084;8.872;2023-08-06T02:43:26;13.60;99.90
32187;DHT22;18686;53.084;8.872;2023-08-06T02:45:57;13.60;99.90
32187;DHT22;18686;53.084;8.872;2023-08-06T02:48:26;13.60;99.90
32187;DHT22;18686;53.084;8.872;2023-08-06T02:50:57;13.60;99.90
32187;DHT22;18686;53.084;8.872;2023-08-06T02:53:28;13.60;99.90
32187;DHT22;18686;53.084;8.872;2023-08-06T02:55:58;13.60;99.90
32187;DHT22;18686;53.084;8.872;2023-08-06T02:58:37;13.60;99.90
32187;DHT22;18686;53.084;8.872;2023-08-06T03:01:18;13.50;99.90
32187;DHT22;18686;53.084;8.872;2023-08-06T03:03:53;13.50;99.90
32187;DHT22;18686;53.084;8.872;2023-08-06T03:06:29;13.40;99.90
32187;DHT22;18686;53.084;8.872;2023-08-06T03:08:58;13.40;99.90
32187;DHT22;18686;53.084;8.872;2023-08-06T03:11:28;13.40;99.90
32187;DHT22;18686;53.084;8.872;2023-08-06T03:14:04;13.40;99.90
32187;DHT22;18686;53.084;8.872;2023-08-06T03:16:32;13.40;99.90
32187;DHT22;18686;53.084;8.872;2023-08-06T03:19:01;13.40;99.90
32187;DHT22;18686;53.084;8.872;2023-08-06T03:21:29;13.40;99.90
32187;DHT22;18686;53.084;8.872;2023-08-06T03:23:58;13.40;99.90
32187;DHT22;18686;53.084;8.872;2023-08-06T03:26:29;13.40;99.90
32187;DHT22;18686;53.084;8.872;2023-08-06T03:28:57;13.40;99.90
32187;DHT22;18686;53.084;8.872;2023-08-06T03:31:29;13.40;99.90
32187;DHT22;18686;53.084;8.872;2023-08-06T03:33:59;13.40;99.90
32187;DHT22;18686;53.084;8.872;2023-08-06T03:36:29;13.50;99.90
32187;DHT22;18686;53.084;8.872;2023-08-06T03:39:00;13.50;99.90
32187;DHT22;18686;53.084;8.872;2023-08-06T03:41:30;13.50;99.90
32187;DHT22;18686;53.084;8.872;2023-08-06T03:43:59;13.60;99.90
32187;DHT22;18686;53.084;8.872;2023-08-06T03:46:31;13.60;99.90
32187;DHT22;18686;53.084;8.872;2023-08-06T03:49:03;13.60;99.90
32187;DHT22;18686;53.084;8.872;2023-08-06T03:51:32;13.60;99.90
32187;DHT22;18686;53.084;8.872;2023-08-06T03:54:01;13.70;99.90
32187;DHT22;18686;53.084;8.872;2023-08-06T03:56:30;13.70;99.90
32187;DHT22;18686;53.084;8.872;2023-08-06T03:58:59;13.80;99.90
32187;DHT22;18686;53.084;8.872;2023-08-06T04:01:28;13.80;99.90
32187;DHT22;18686;53.084;8.872;2023-08-06T04:03:58;13.80;99.90
32187;DHT22;18686;53.084;8.872;2023-08-06T04:06:26;13.90;99.90
32187;DHT22;18686;53.084;8.872;2023-08-06T04:08:55;13.90;99.90
32187;DHT22;18686;53.084;8.872;2023-08-06T04:11:23;13.90;99.90
32187;DHT22;18686;53.084;8.872;2023-08-06T04:13:52;14.00;99.90
32187;DHT22;18686;53.084;8.872;2023-08-06T04:16:24;14.00;99.90
32187;DHT22;18686;53.084;8.872;2023-08-06T04:18:54;14.00;99.90
32187;DHT22;18686;53.084;8.872;2023-08-06T04:21:24;14.00;99.90
32187;DHT22;18686;53.084;8.872;2023-08-06T04:23:53;14.00;99.90
32187;DHT22;18686;53.084;8.872;2023-08-06T04:26:21;14.10;99.90
32187;DHT22;18686;53.084;8.872;2023-08-06T04:28:50;14.10;99.90
32187;DHT22;18686;53.084;8.872;2023-08-06T04:31:19;14.10;99.90
32187;DHT22;18686;53.084;8.872;2023-08-06T04:33:48;14.10;99.90
32187;DHT22;18686;53.084;8.872;2023-08-06T04:36:16;14.10;99.90
32187;DHT22;18686;53.084;8.872;2023-08-06T04:38:46;14.10;99.90
32187;DHT22;18686;53.084;8.872;2023-08-06T04:41:16;14.10;99.90
32187;DHT22;18686;53.084;8.872;2023-08-06T04:43:44;14.10;99.90
32187;DHT22;18686;53.084;8.872;2023-08-06T04:46:13;14.10;99.90
32187;DHT22;18686;53.084;8.872;2023-08-06T04:48:41;14.10;99.90
32187;DHT22;18686;53.084;8.872;2023-08-06T04:51:10;14.10;99.90
32187;DHT22;18686;53.084;8.872;2023-08-06T04:53:38;14.10;99.90
32187;DHT22;18686;53.084;8.872;2023-08-06T04:56:08;14.10;99.90
32187;DHT22;18686;53.084;8.872;2023-08-06T04:58:36;14.10;99.90
32187;DHT22;18686;53.084;8.872;2023-08-06T05:01:06;14.10;99.90
32187;DHT22;18686;53.084;8.872;2023-08-06T05:03:34;14.10;99.90
32187;DHT22;18686;53.084;8.872;2023-08-06T05:06:03;14.10;99.90
32187;DHT22;18686;53.084;8.872;2023-08-06T05:08:31;14.20;99.90
32187;DHT22;18686;53.084;8.872;2023-08-06T05:11:00;14.20;99.90
32187;DHT22;18686;53.084;8.872;2023-08-06T05:13:29;14.20;99.90
32187;DHT22;18686;53.084;8.872;2023-08-06T05:15:58;14.20;99.90
32187;DHT22;18686;53.084;8.872;2023-08-06T05:18:26;14.30;99.90
32187;DHT22;18686;53.084;8.872;2023-08-06T05:20:55;14.30;99.90
32187;DHT22;18686;53.084;8.872;2023-08-06T05:23:24;14.30;99.90
32187;DHT22;18686;53.084;8.872;2023-08-06T05:25:52;14.30;99.90
32187;DHT22;18686;53.084;8.872;2023-08-06T05:28:20;14.40;99.90
32187;DHT22;18686;53.084;8.872;2023-08-06T05:30:50;14.50;99.90
32187;DHT22;18686;53.084;8.872;2023-08-06T05:33:20;14.50;99.90
32187;DHT22;18686;53.084;8.872;2023-08-06T05:35:49;14.50;99.90
32187;DHT22;18686;53.084;8.872;2023-08-06T05:38:17;14.60;99.90
32187;DHT22;18686;53.084;8.872;2023-08-06T05:40:46;14.70;99.90
32187;DHT22;18686;53.084;8.872;2023-08-06T05:43:14;14.80;99.90
32187;DHT22;18686;53.084;8.872;2023-08-06T05:45:44;14.90;99.90
32187;DHT22;18686;53.084;8.872;2023-08-06T05:48:15;15.00;99.90
32187;DHT22;18686;53.084;8.872;2023-08-06T05:50:43;15.00;99.90
32187;DHT22;18686;53.084;8.872;2023-08-06T05:53:12;15.00;99.90
32187;DHT22;18686;53.084;8.872;2023-08-06T05:55:40;15.10;99.90
32187;DHT22;18686;53.084;8.872;2023-08-06T05:58:09;15.10;99.90
32187;DHT22;18686;53.084;8.872;2023-08-06T06:00:37;15.10;99.90
32187;DHT22;18686;53.084;8.872;2023-08-06T06:03:05;15.00;99.90
32187;DHT22;18686;53.084;8.872;2023-08-06T06:05:37;15.10;99.90
32187;DHT22;18686;53.084;8.872;2023-08-06T06:08:06;15.10;99.90
32187;DHT22;18686;53.084;8.872;2023-08-06T06:10:35;15.20;99.90
32187;DHT22;18686;53.084;8.872;2023-08-06T06:13:03;15.20;99.90
32187;DHT22;18686;53.084;8.872;2023-08-06T06:15:36;15.30;99.90
32187;DHT22;18686;53.084;8.872;2023-08-06T06:18:05;15.50;99.90
32187;DHT22;18686;53.084;8.872;2023-08-06T06:20:33;15.60;99.90
32187;DHT22;18686;53.084;8.872;2023-08-06T06:23:04;15.70;99.90
32187;DHT22;18686;53.084;8.872;2023-08-06T06:25:32;15.90;99.90
32187;DHT22;18686;53.084;8.872;2023-08-06T06:28:00;16.00;99.90
32187;DHT22;18686;53.084;8.872;2023-08-06T06:30:29;16.10;99.90
32187;DHT22;18686;53.084;8.872;2023-08-06T06:32:58;16.20;99.90
32187;DHT22;18686;53.084;8.872;2023-08-06T06:35:26;16.20;99.90
32187;DHT22;18686;53.084;8.872;2023-08-06T06:37:54;16.30;99.90
32187;DHT22;18686;53.084;8.872;2023-08-06T06:40:24;16.30;99.90
32187;DHT22;18686;53.084;8.872;2023-08-06T06:42:53;16.40;99.90
32187;DHT22;18686;53.084;8.872;2023-08-06T06:45:21;16.40;99.90
32187;DHT22;18686;53.084;8.872;2023-08-06T06:47:50;16.40;99.90
32187;DHT22;18686;53.084;8.872;2023-08-06T06:50:18;16.40;99.90
32187;DHT22;18686;53.084;8.872;2023-08-06T06:52:46;16.40;99.90
32187;DHT22;18686;53.084;8.872;2023-08-06T06:55:15;16.40;99.90
32187;DHT22;18686;53.084;8.872;2023-08-06T06:57:45;16.40;99.90
32187;DHT22;18686;53.084;8.872;2023-08-06T07:00:14;16.40;99.90
32187;DHT22;18686;53.084;8.872;2023-08-06T07:02:42;16.50;99.90
32187;DHT22;18686;53.084;8.872;2023-08-06T07:05:11;16.50;99.90
32187;DHT22;18686;53.084;8.872;2023-08-06T07:07:39;16.60;99.90
32187;DHT22;18686;53.084;8.872;2023-08-06T07:10:08;16.80;99.90
32187;DHT22;18686;53.084;8.872;2023-08-06T07:12:37;16.90;99.90
32187;DHT22;18686;53.084;8.872;2023-08-06T07:15:08;17.10;99.90
32187;DHT22;18686;53.084;8.872;2023-08-06T07:17:38;17.30;99.90
32187;DHT22;18686;53.084;8.872;2023-08-06T07:20:07;17.60;99.90
32187;DHT22;18686;53.084;8.872;2023-08-06T07:22:36;18.00;99.90
32187;DHT22;18686;53.084;8.872;2023-08-06T07:25:04;18.30;99.90
32187;DHT22;18686;53.084;8.872;2023-08-06T07:27:33;18.40;99.90
32187;DHT22;18686;53.084;8.872;2023-08-06T07:30:01;18.50;99.90
32187;DHT22;18686;53.084;8.872;2023-08-06T07:32:31;18.60;99.90
32187;DHT22;18686;53.084;8.872;2023-08-06T07:35:00;18.70;99.90
32187;DHT22;18686;53.084;8.872;2023-08-06T07:37:30;18.80;99.90
32187;DHT22;18686;53.084;8.872;2023-08-06T07:39:58;18.90;99.90
32187;DHT22;18686;53.084;8.872;2023-08-06T07:42:27;19.00;99.90
32187;DHT22;18686;53.084;8.872;2023-08-06T07:44:56;18.90;99.90
32187;DHT22;18686;53.084;8.872;2023-08-06T07:47:25;19.00;99.90
32187;DHT22;18686;53.084;8.872;2023-08-06T07:49:54;19.00;99.90
32187;DHT22;18686;53.084;8.872;2023-08-06T07:52:23;19.00;99.90
32187;DHT22;18686;53.084;8.872;2023-08-06T07:54:51;19.00;99.90
32187;DHT22;18686;53.084;8.872;2023-08-06T07:57:20;19.10;99.90
32187;DHT22;18686;53.084;8.872;2023-08-06T07:59:49;19.30;99.90
32187;DHT22;18686;53.084;8.872;2023-08-06T08:02:17;19.60;99.90
32187;DHT22;18686;53.084;8.872;2023-08-06T08:04:45;19.90;99.90
32187;DHT22;18686;53.084;8.872;2023-08-06T08:07:15;20.10;99.90
32187;DHT22;18686;53.084;8.872;2023-08-06T08:09:44;20.30;99.90
32187;DHT22;18686;53.084;8.872;2023-08-06T08:12:12;20.00;99.90
32187;DHT22;18686;53.084;8.872;2023-08-06T08:14:41;20.00;99.90
32187;DHT22;18686;53.084;8.872;2023-08-06T08:17:12;20.00;99.90
32187;DHT22;18686;53.084;8.872;2023-08-06T08:19:40;20.10;99.90
32187;DHT22;18686;53.084;8.872;2023-08-06T08:22:09;20.40;99.90
32187;DHT22;18686;53.084;8.872;2023-08-06T08:24:39;20.70;99.90
32187;DHT22;18686;53.084;8.872;2023-08-06T08:27:07;20.90;99.90
32187;DHT22;18686;53.084;8.872;2023-08-06T08:29:35;21.30;99.90
32187;DHT22;18686;53.084;8.872;2023-08-06T08:32:04;21.50;99.90
32187;DHT22;18686;53.084;8.872;2023-08-06T08:34:33;21.50;99.90
32187;DHT22;18686;53.084;8.872;2023-08-06T08:37:01;21.30;99.90
32187;DHT22;18686;53.084;8.872;2023-08-06T08:39:29;21.80;99.90
32187;DHT22;18686;53.084;8.872;2023-08-06T08:41:59;22.20;99.90
32187;DHT22;18686;53.084;8.872;2023-08-06T08:44:29;22.20;99.90
32187;DHT22;18686;53.084;8.872;2023-08-06T08:46:59;22.80;99.90
32187;DHT22;18686;53.084;8.872;2023-08-06T08:49:27;23.60;99.90
32187;DHT22;18686;53.084;8.872;2023-08-06T08:51:57;24.20;99.90
32187;DHT22;18686;53.084;8.872;2023-08-06T08:54:27;24.80;99.90
32187;DHT22;18686;53.084;8.872;2023-08-06T08:56:56;25.20;99.90
32187;DHT22;18686;53.084;8.872;2023-08-06T08:59:27;25.40;99.90
32187;DHT22;18686;53.084;8.872;2023-08-06T09:01:56;25.40;99.90
32187;DHT22;18686;53.084;8.872;2023-08-06T09:04:26;25.60;99.90
32187;DHT22;18686;53.084;8.872;2023-08-06T09:06:58;25.10;99.90
32187;DHT22;18686;53.084;8.872;2023-08-06T09:09:31;25.10;99.90
32187;DHT22;18686;53.084;8.872;2023-08-06T09:12:10;25.40;99.90
32187;DHT22;18686;53.084;8.872;2023-08-06T09:14:41;25.70;99.90
32187;DHT22;18686;53.084;8.872;2023-08-06T09:17:10;25.70;99.90
32187;DHT22;18686;53.084;8.872;2023-08-06T09:19:41;26.00;99.90
32187;DHT22;18686;53.084;8.872;2023-08-06T09:22:13;26.40;99.90
32187;DHT22;18686;53.084;8.872;2023-08-06T09:24:43;26.50;99.90
32187;DHT22;18686;53.084;8.872;2023-08-06T09:27:12;26.50;99.90
32187;DHT22;18686;53.084;8.872;2023-08-06T09:29:43;26.60;99.90
32187;DHT22;18686;53.084;8.872;2023-08-06T09:32:12;26.60;99.90
32187;DHT22;18686;53.084;8.872;2023-08-06T09:34:42;26.70;99.90
32187;DHT22;18686;53.084;8.872;2023-08-06T09:37:11;26.80;99.90
32187;DHT22;18686;53.084;8.872;2023-08-06T09:39:40;27.00;99.90
32187;DHT22;18686;53.084;8.872;2023-08-06T09:42:08;27.30;99.90
32187;DHT22;18686;53.084;8.872;2023-08-06T09:44:40;27.60;99.90
32187;DHT22;18686;53.084;8.872;2023-08-06T09:47:10;27.80;99.90
32187;DHT22;18686;53.084;8.872;2023-08-06T09:49:42;28.20;99.90
32187;DHT22;18686;53.084;8.872;2023-08-06T09:52:13;28.50;95.60
32187;DHT22;18686;53.084;8.872;2023-08-06T09:54:43;28.90;92.50
32187;DHT22;18686;53.084;8.872;2023-08-06T09:57:12;29.20;87.00
32187;DHT22;18686;53.084;8.872;2023-08-06T09:59:42;29.50;79.90
32187;DHT22;18686;53.084;8.872;2023-08-06T10:02:14;29.70;75.40
32187;DHT22;18686;53.084;8.872;2023-08-06T10:04:44;30.10;71.50
32187;DHT22;18686;53.084;8.872;2023-08-06T10:07:21;30.50;68.70
32187;DHT22;18686;53.084;8.872;2023-08-06T10:09:51;30.80;65.30
32187;DHT22;18686;53.084;8.872;2023-08-06T10:12:20;31.00;61.00
32187;DHT22;18686;53.084;8.872;2023-08-06T10:14:50;31.50;58.30
32187;DHT22;18686;53.084;8.872;2023-08-06T10:17:20;31.80;56.30
32187;DHT22;18686;53.084;8.872;2023-08-06T10:20:15;32.30;52.70
32187;DHT22;18686;53.084;8.872;2023-08-06T10:22:44;32.70;50.00
32187;DHT22;18686;53.084;8.872;2023-08-06T10:25:17;32.90;50.40
32187;DHT22;18686;53.084;8.872;2023-08-06T10:27:53;33.10;51.00
32187;DHT22;18686;53.084;8.872;2023-08-06T11:57:21;45.20;28.80
32187;DHT22;18686;53.084;8.872;2023-08-06T11:59:50;42.20;30.20
32187;DHT22;18686;53.084;8.872;2023-08-06T12:02:21;40.00;31.90
32187;DHT22;18686;53.084;8.872;2023-08-06T12:05:02;38.10;33.10
32187;DHT22;18686;53.084;8.872;2023-08-06T12:07:32;37.10;35.20
32187;DHT22;18686;53.084;8.872;2023-08-06T12:10:04;37.40;35.00
32187;DHT22;18686;53.084;8.872;2023-08-06T12:12:34;37.00;34.70
32187;DHT22;18686;53.084;8.872;2023-08-06T12:15:05;36.50;35.00
32187;DHT22;18686;53.084;8.872;2023-08-06T12:17:34;35.60;36.30
32187;DHT22;18686;53.084;8.872;2023-08-06T12:20:03;34.70;37.50
32187;DHT22;18686;53.084;8.872;2023-08-06T12:22:33;35.30;38.40
32187;DHT22;18686;53.084;8.872;2023-08-06T12:25:03;37.00;36.70
32187;DHT22;18686;53.084;8.872;2023-08-06T12:27:35;37.90;35.10
32187;DHT22;18686;53.084;8.872;2023-08-06T12:30:05;39.00;34.60
32187;DHT22;18686;53.084;8.872;2023-08-06T12:32:52;39.80;33.80
32187;DHT22;18686;53.084;8.872;2023-08-06T12:35:21;41.00;32.50
32187;DHT22;18686;53.084;8.872;2023-08-06T12:37:49;41.20;32.00
32187;DHT22;18686;53.084;8.872;2023-08-06T12:40:21;40.50;32.10
32187;DHT22;18686;53.084;8.872;2023-08-06T12:43:03;39.40;33.00
32187;DHT22;18686;53.084;8.872;2023-08-06T12:45:32;38.10;34.40
32187;DHT22;18686;53.084;8.872;2023-08-06T12:48:00;37.50;35.70
32187;DHT22;18686;53.084;8.872;2023-08-06T12:50:29;37.20;35.90
32187;DHT22;18686;53.084;8.872;2023-08-06T12:53:03;36.70;36.60
32187;DHT22;18686;53.084;8.872;2023-08-06T12:55:32;36.10;37.00
32187;DHT22;18686;53.084;8.872;2023-08-06T12:58:02;35.40;37.80
32187;DHT22;18686;53.084;8.872;2023-08-06T13:00:30;34.60;38.50
32187;DHT22;18686;53.084;8.872;2023-08-06T13:02:59;33.70;39.60
32187;DHT22;18686;53.084;8.872;2023-08-06T13:05:28;33.00;40.10
32187;DHT22;18686;53.084;8.872;2023-08-06T13:07:56;32.20;41.10
32187;DHT22;18686;53.084;8.872;2023-08-06T13:10:24;31.50;41.20
32187;DHT22;18686;53.084;8.872;2023-08-06T13:12:54;31.00;42.40
32187;DHT22;18686;53.084;8.872;2023-08-06T13:15:24;30.50;43.50
32187;DHT22;18686;53.084;8.872;2023-08-06T13:17:52;30.20;44.80
32187;DHT22;18686;53.084;8.872;2023-08-06T13:20:21;30.10;45.50
32187;DHT22;18686;53.084;8.872;2023-08-06T13:22:50;29.80;46.30
32187;DHT22;18686;53.084;8.872;2023-08-06T13:25:20;29.50;46.30
32187;DHT22;18686;53.084;8.872;2023-08-06T13:27:48;29.20;46.80
32187;DHT22;18686;53.084;8.872;2023-08-06T13:30:17;29.50;46.70
32187;DHT22;18686;53.084;8.872;2023-08-06T13:32:47;30.20;45.80
32187;DHT22;18686;53.084;8.872;2023-08-06T13:35:15;30.70;44.30
32187;DHT22;18686;53.084;8.872;2023-08-06T13:37:43;31.00;43.60
32187;DHT22;18686;53.084;8.872;2023-08-06T13:40:12;31.10;43.20
32187;DHT22;18686;53.084;8.872;2023-08-06T13:42:40;31.90;42.90
32187;DHT22;18686;53.084;8.872;2023-08-06T13:45:09;33.80;41.50
32187;DHT22;18686;53.084;8.872;2023-08-06T13:47:37;34.80;38.90
32187;DHT22;18686;53.084;8.872;2023-08-06T13:50:08;34.90;38.30
32187;DHT22;18686;53.084;8.872;2023-08-06T13:52:36;34.80;38.00
32187;DHT22;18686;53.084;8.872;2023-08-06T13:55:05;34.40;38.00
32187;DHT22;18686;53.084;8.872;2023-08-06T13:57:34;33.80;38.60
32187;DHT22;18686;53.084;8.872;2023-08-06T14:00:03;33.20;39.80
32187;DHT22;18686;53.084;8.872;2023-08-06T14:02:38;32.60;40.70
32187;DHT22;18686;53.084;8.872;2023-08-06T14:05:08;32.10;41.90
32187;DHT22;18686;53.084;8.872;2023-08-06T14:07:37;31.80;42.20
32187;DHT22;18686;53.084;8.872;2023-08-06T14:10:06;31.40;44.00
32187;DHT22;18686;53.084;8.872;2023-08-06T14:12:36;31.00;44.50
32187;DHT22;18686;53.084;8.872;2023-08-06T14:15:04;30.80;44.50
32187;DHT22;18686;53.084;8.872;2023-08-06T14:17:32;31.20;45.80
32187;DHT22;18686;53.084;8.872;2023-08-06T14:20:01;32.50;44.50
32187;DHT22;18686;53.084;8.872;2023-08-06T14:22:33;33.00;42.90
32187;DHT22;18686;53.084;8.872;2023-08-06T14:25:01;32.70;41.90
32187;DHT22;18686;53.084;8.872;2023-08-06T14:27:29;32.10;42.90
32187;DHT22;18686;53.084;8.872;2023-08-06T14:29:58;31.30;43.40
32187;DHT22;18686;53.084;8.872;2023-08-06T14:32:27;30.40;44.50
32187;DHT22;18686;53.084;8.872;2023-08-06T14:34:56;29.60;46.30
32187;DHT22;18686;53.084;8.872;2023-08-06T14:37:24;29.00;46.70
32187;DHT22;18686;53.084;8.872;2023-08-06T14:39:54;28.70;48.50
32187;DHT22;18686;53.084;8.872;2023-08-06T14:42:23;28.60;48.40
32187;DHT22;18686;53.084;8.872;2023-08-06T14:44:51;28.70;48.30
32187;DHT22;18686;53.084;8.872;2023-08-06T14:47:19;28.60;48.60
32187;DHT22;18686;53.084;8.872;2023-08-06T14:49:47;28.50;49.20
32187;DHT22;18686;53.084;8.872;2023-08-06T14:52:16;28.30;49.30
32187;DHT22;18686;53.084;8.872;2023-08-06T14:54:44;28.00;50.70
32187;DHT22;18686;53.084;8.872;2023-08-06T14:57:14;27.80;50.90
32187;DHT22;18686;53.084;8.872;2023-08-06T14:59:43;27.40;51.50
32187;DHT22;18686;53.084;8.872;2023-08-06T15:02:11;27.20;52.30
32187;DHT22;18686;53.084;8.872;2023-08-06T15:04:39;26.90;53.70
32187;DHT22;18686;53.084;8.872;2023-08-06T15:07:08;26.50;53.80
32187;DHT22;18686;53.084;8.872;2023-08-06T15:09:37;26.10;55.00
32187;DHT22;18686;53.084;8.872;2023-08-06T15:12:27;25.70;55.60
32187;DHT22;18686;53.084;8.872;2023-08-06T15:14:55;25.40;56.60
32187;DHT22;18686;53.084;8.872;2023-08-06T15:17:24;25.10;56.90
32187;DHT22;18686;53.084;8.872;2023-08-06T15:19:55;24.90;58.60
32187;DHT22;18686;53.084;8.872;2023-08-06T15:22:23;24.70;61.20
32187;DHT22;18686;53.084;8.872;2023-08-06T15:24:52;24.60;61.10
32187;DHT22;18686;53.084;8.872;2023-08-06T15:27:21;24.50;61.90
32187;DHT22;18686;53.084;8.872;2023-08-06T15:29:50;24.40;63.10
32187;DHT22;18686;53.084;8.872;2023-08-06T15:32:19;24.40;63.20
32187;DHT22;18686;53.084;8.872;2023-08-06T15:34:48;24.40;63.80
32187;DHT22;18686;53.084;8.872;2023-08-06T15:37:16;24.20;64.70
32187;DHT22;18686;53.084;8.872;2023-08-06T15:39:46;24.20;65.90
32187;DHT22;18686;53.084;8.872;2023-08-06T15:42:14;24.10;66.50
32187;DHT22;18686;53.084;8.872;2023-08-06T15:44:43;23.90;67.70
32187;DHT22;18686;53.084;8.872;2023-08-06T15:47:16;23.70;68.00
32187;DHT22;18686;53.084;8.872;2023-08-06T15:49:44;23.40;68.50
32187;DHT22;18686;53.084;8.872;2023-08-06T15:52:13;23.20;69.80
32187;DHT22;18686;53.084;8.872;2023-08-06T15:54:41;22.90;71.40
32187;DHT22;18686;53.084;8.872;2023-08-06T15:57:09;22.60;75.10
32187;DHT22;18686;53.084;8.872;2023-08-06T15:59:38;22.40;79.10
32187;DHT22;18686;53.084;8.872;2023-08-06T16:02:07;22.20;81.50
32187;DHT22;18686;53.084;8.872;2023-08-06T16:04:38;22.00;85.20
32187;DHT22;18686;53.084;8.872;2023-08-06T16:07:06;21.80;89.80
32187;DHT22;18686;53.084;8.872;2023-08-06T16:09:35;21.60;91.40
32187;DHT22;18686;53.084;8.872;2023-08-06T16:12:04;21.50;93.40
32187;DHT22;18686;53.084;8.872;2023-08-06T16:14:35;21.40;94.60
32187;DHT22;18686;53.084;8.872;2023-08-06T16:17:03;21.30;95.60
32187;DHT22;18686;53.084;8.872;2023-08-06T16:19:32;21.30;96.30
32187;DHT22;18686;53.084;8.872;2023-08-06T16:22:02;21.30;96.60
32187;DHT22;18686;53.084;8.872;2023-08-06T16:24:30;21.20;98.10
32187;DHT22;18686;53.084;8.872;2023-08-06T16:26:58;21.20;97.90
32187;DHT22;18686;53.084;8.872;2023-08-06T16:29:27;21.30;98.90
32187;DHT22;18686;53.084;8.872;2023-08-06T16:31:55;21.30;98.70
32187;DHT22;18686;53.084;8.872;2023-08-06T16:34:24;21.20;99.80
32187;DHT22;18686;53.084;8.872;2023-08-06T16:36:52;21.20;99.90
32187;DHT22;18686;53.084;8.872;2023-08-06T16:39:23;21.10;99.90
32187;DHT22;18686;53.084;8.872;2023-08-06T16:41:53;21.00;99.90
32187;DHT22;18686;53.084;8.872;2023-08-06T16:44:24;21.10;99.90
32187;DHT22;18686;53.084;8.872;2023-08-06T16:46:52;21.10;99.90
32187;DHT22;18686;53.084;8.872;2023-08-06T16:49:21;21.10;99.90
32187;DHT22;18686;53.084;8.872;2023-08-06T16:51:49;21.10;99.90
32187;DHT22;18686;53.084;8.872;2023-08-06T16:54:18;21.10;99.90
32187;DHT22;18686;53.084;8.872;2023-08-06T16:56:47;21.00;99.90
32187;DHT22;18686;53.084;8.872;2023-08-06T16:59:16;20.80;99.90
32187;DHT22;18686;53.084;8.872;2023-08-06T17:01:44;20.70;99.90
32187;DHT22;18686;53.084;8.872;2023-08-06T17:04:12;20.60;99.90
32187;DHT22;18686;53.084;8.872;2023-08-06T17:06:40;20.50;99.90
32187;DHT22;18686;53.084;8.872;2023-08-06T17:09:09;20.40;99.90
32187;DHT22;18686;53.084;8.872;2023-08-06T17:11:39;20.40;99.90